createdAt,value
2018-03-23T00:00:20.921Z,4.30
2018-03-23T00:02:48.452Z,4.30
2018-03-23T00:05:15.963Z,4.30
2018-03-23T00:07:43.457Z,4.30
2018-03-23T00:10:10.999Z,4.30
2018-03-23T00:12:38.462Z,4.40
2018-03-23T00:15:05.930Z,4.40
2018-03-23T00:17:33.425Z,4.40
2018-03-23T00:20:01.023Z,4.40
2018-03-23T00:22:28.567Z,4.40
2018-03-23T00:24:56.055Z,4.30
2018-03-23T00:27:23.519Z,4.40
2018-03-23T00:29:51.020Z,4.30
2018-03-23T00:32:18.483Z,4.10
2018-03-23T00:34:45.995Z,4.20
2018-03-23T00:37:13.490Z,4.10
2018-03-23T00:39:41.004Z,4.10
2018-03-23T00:42:08.794Z,4.00
2018-03-23T00:44:36.293Z,4.00
2018-03-23T00:47:16.584Z,3.90
2018-03-23T00:49:44.063Z,3.80
2018-03-23T00:52:12.286Z,3.70
2018-03-23T00:54:39.777Z,3.70
2018-03-23T00:57:07.242Z,3.60
2018-03-23T00:59:34.870Z,3.60
2018-03-23T01:02:02.322Z,3.60
2018-03-23T01:04:29.790Z,3.60
2018-03-23T01:06:57.245Z,3.50
2018-03-23T01:09:24.730Z,3.60
2018-03-23T01:11:52.230Z,3.60
2018-03-23T01:14:19.748Z,3.70
2018-03-23T01:16:47.299Z,3.80
2018-03-23T01:19:15.575Z,4.00
2018-03-23T01:21:43.132Z,4.00
2018-03-23T01:24:10.612Z,4.00
2018-03-23T01:26:38.097Z,4.00
2018-03-23T01:29:05.576Z,4.10
2018-03-23T01:31:33.084Z,4.20
2018-03-23T01:34:00.564Z,4.20
2018-03-23T01:36:28.110Z,4.20
2018-03-23T01:38:55.566Z,4.20
2018-03-23T01:41:23.274Z,4.20
2018-03-23T01:43:50.738Z,4.30
2018-03-23T01:46:18.242Z,4.20
2018-03-23T01:48:46.522Z,4.10
2018-03-23T01:51:14.032Z,4.10
2018-03-23T01:53:43.349Z,4.10
2018-03-23T01:56:10.830Z,4.10
2018-03-23T01:58:39.063Z,4.00
2018-03-23T02:01:06.547Z,4.00
2018-03-23T02:03:34.090Z,4.00
2018-03-23T02:06:01.581Z,3.90
2018-03-23T02:08:29.815Z,3.90
2018-03-23T02:10:57.321Z,3.90
2018-03-23T02:13:25.555Z,3.90
2018-03-23T02:15:53.022Z,3.90
2018-03-23T02:18:20.474Z,3.80
2018-03-23T02:20:47.960Z,3.80
2018-03-23T02:23:15.458Z,3.70
2018-03-23T02:25:42.979Z,3.70
2018-03-23T02:28:11.205Z,3.50
2018-03-23T02:30:38.691Z,3.50
2018-03-23T02:33:06.167Z,3.50
2018-03-23T02:35:33.621Z,3.40
2018-03-23T02:38:01.897Z,3.40
2018-03-23T02:40:30.130Z,3.50
2018-03-23T02:42:57.640Z,3.50
2018-03-23T02:45:25.096Z,3.50
2018-03-23T02:47:52.543Z,3.50
2018-03-23T02:50:20.078Z,3.40
2018-03-23T02:52:47.570Z,3.50
2018-03-23T02:55:15.064Z,3.50
2018-03-23T02:57:42.559Z,3.30
2018-03-23T03:00:10.138Z,3.30
2018-03-23T03:02:37.603Z,3.40
2018-03-23T03:05:05.049Z,3.30
2018-03-23T03:07:32.654Z,3.40
2018-03-23T03:10:00.160Z,3.30
2018-03-23T03:12:27.676Z,3.40
2018-03-23T03:14:55.174Z,3.40
2018-03-23T03:17:22.677Z,3.50
2018-03-23T03:19:50.341Z,3.60
2018-03-23T03:22:18.028Z,3.60
2018-03-23T03:24:45.522Z,3.70
2018-03-23T03:27:13.010Z,3.80
2018-03-23T03:29:40.932Z,3.90
2018-03-23T03:32:08.433Z,3.90
2018-03-23T03:34:35.920Z,3.80
2018-03-23T03:37:03.384Z,3.90
2018-03-23T03:39:30.943Z,3.90
2018-03-23T03:41:58.406Z,3.90
2018-03-23T03:44:25.962Z,3.90
2018-03-23T03:46:53.434Z,3.90
2018-03-23T03:49:20.962Z,3.90
2018-03-23T03:51:48.454Z,4.00
2018-03-23T03:54:15.953Z,4.00
2018-03-23T03:56:43.439Z,4.10
2018-03-23T03:59:10.957Z,4.00
2018-03-23T04:01:38.445Z,3.90
2018-03-23T04:04:05.940Z,3.90
2018-03-23T04:06:33.417Z,3.80
2018-03-23T04:09:00.905Z,3.80
2018-03-23T04:11:28.414Z,3.80
2018-03-23T04:13:55.892Z,3.80
2018-03-23T04:16:23.391Z,3.90
2018-03-23T04:18:50.890Z,3.90
2018-03-23T04:21:19.146Z,3.80
2018-03-23T04:23:46.602Z,3.80
2018-03-23T04:26:14.101Z,3.80
2018-03-23T04:28:41.595Z,3.70
2018-03-23T04:31:09.123Z,3.70
2018-03-23T04:33:36.611Z,3.60
2018-03-23T04:36:04.127Z,3.50
2018-03-23T04:38:31.615Z,3.30
2018-03-23T04:40:59.227Z,3.30
2018-03-23T04:43:26.678Z,3.40
2018-03-23T04:45:54.218Z,3.40
2018-03-23T04:48:21.701Z,3.50
2018-03-23T04:50:49.948Z,3.60
2018-03-23T04:53:17.454Z,3.60
2018-03-23T04:55:44.918Z,3.70
2018-03-23T04:58:12.412Z,3.60
2018-03-23T05:00:40.030Z,3.70
2018-03-23T05:03:07.624Z,3.70
2018-03-23T05:05:35.108Z,3.60
2018-03-23T05:08:02.629Z,3.60
2018-03-23T05:10:30.119Z,3.60
2018-03-23T05:12:57.590Z,3.60
2018-03-23T05:15:25.050Z,3.60
2018-03-23T05:17:53.327Z,3.60
2018-03-23T05:20:20.814Z,3.60
2018-03-23T05:22:48.300Z,3.70
2018-03-23T05:25:15.774Z,3.80
2018-03-23T05:27:44.305Z,3.80
2018-03-23T05:30:11.851Z,3.90
2018-03-23T05:32:39.325Z,4.00
2018-03-23T05:35:06.809Z,4.00
2018-03-23T05:37:34.283Z,4.10
2018-03-23T05:40:01.755Z,4.00
2018-03-23T05:42:29.257Z,4.10
2018-03-23T05:44:56.818Z,4.10
2018-03-23T05:47:24.325Z,4.20
2018-03-23T05:49:51.815Z,4.20
2018-03-23T05:52:19.340Z,4.00
2018-03-23T05:54:46.926Z,4.10
2018-03-23T05:57:15.158Z,4.40
2018-03-23T05:59:42.628Z,4.40
2018-03-23T06:02:10.094Z,4.30
2018-03-23T06:04:38.491Z,4.30
2018-03-23T06:07:06.263Z,4.50
2018-03-23T06:09:33.741Z,4.70
2018-03-23T06:12:01.255Z,4.70
2018-03-23T06:14:28.745Z,4.70
2018-03-23T06:16:57.029Z,4.70
2018-03-23T06:19:24.578Z,4.70
2018-03-23T06:21:52.071Z,4.70
2018-03-23T06:24:19.566Z,4.70
2018-03-23T06:26:47.087Z,4.80
2018-03-23T06:29:14.556Z,4.80
2018-03-23T06:31:42.032Z,4.80
2018-03-23T06:34:09.530Z,4.80
2018-03-23T06:36:37.061Z,4.80
2018-03-23T06:39:04.567Z,4.80
2018-03-23T06:41:32.039Z,4.80
2018-03-23T06:44:00.544Z,4.90
2018-03-23T06:46:28.010Z,4.90
2018-03-23T06:48:55.530Z,4.90
2018-03-23T06:51:23.112Z,5.00
2018-03-23T06:53:50.617Z,5.00
2018-03-23T06:56:18.086Z,5.00
2018-03-23T06:58:45.880Z,5.00
2018-03-23T07:01:13.392Z,5.00
2018-03-23T07:03:40.894Z,5.20
2018-03-23T07:06:08.372Z,5.20
2018-03-23T07:08:35.830Z,5.30
2018-03-23T07:11:03.300Z,5.30
2018-03-23T07:13:30.748Z,5.40
2018-03-23T07:15:58.755Z,5.40
2018-03-23T07:18:26.428Z,5.50
2018-03-23T07:20:53.905Z,5.50
2018-03-23T07:23:21.419Z,5.50
2018-03-23T07:25:48.922Z,5.60
2018-03-23T07:28:16.471Z,5.60
2018-03-23T07:30:43.974Z,5.70
2018-03-23T07:33:11.467Z,5.80
2018-03-23T07:35:39.705Z,5.90
2018-03-23T07:38:07.284Z,6.00
2018-03-23T07:40:34.792Z,6.10
2018-03-23T07:43:02.287Z,6.10
2018-03-23T07:45:30.569Z,6.40
2018-03-23T07:47:58.163Z,6.40
2018-03-23T07:50:25.736Z,6.50
2018-03-23T07:52:53.242Z,6.50
2018-03-23T07:55:20.700Z,6.60
2018-03-23T07:57:48.167Z,6.60
2018-03-23T08:00:16.527Z,6.40
2018-03-23T08:02:44.804Z,6.40
2018-03-23T08:05:12.312Z,6.40
2018-03-23T08:07:39.805Z,6.40
2018-03-23T08:10:07.301Z,6.60
2018-03-23T08:12:35.654Z,6.70
2018-03-23T08:15:03.139Z,6.70
2018-03-23T08:17:30.688Z,6.80
2018-03-23T08:19:58.241Z,6.80
2018-03-23T08:22:25.773Z,6.90
2018-03-23T08:24:53.306Z,6.90
2018-03-23T08:27:20.820Z,6.90
2018-03-23T08:29:48.284Z,7.00
2018-03-23T08:32:16.662Z,7.00
2018-03-23T08:34:44.208Z,7.00
2018-03-23T08:37:12.514Z,7.00
2018-03-23T08:39:40.107Z,7.00
2018-03-23T08:42:07.675Z,7.00
2018-03-23T08:44:35.971Z,7.20
2018-03-23T08:47:03.487Z,7.20
2018-03-23T08:49:30.987Z,7.40
2018-03-23T08:51:58.466Z,7.40
2018-03-23T08:54:26.035Z,7.40
2018-03-23T08:56:53.563Z,7.40
2018-03-23T08:59:21.094Z,7.40
2018-03-23T09:01:48.583Z,7.40
2018-03-23T09:04:16.095Z,7.40
2018-03-23T09:06:43.603Z,7.30
2018-03-23T09:09:11.158Z,7.30
2018-03-23T09:11:39.667Z,7.30
2018-03-23T09:14:07.183Z,7.40
2018-03-23T09:16:35.210Z,7.50
2018-03-23T09:19:02.849Z,7.60
2018-03-23T09:21:31.049Z,7.70
2018-03-23T09:23:58.687Z,7.90
2018-03-23T09:26:26.232Z,8.00
2018-03-23T09:28:54.484Z,8.20
2018-03-23T09:31:22.113Z,8.20
2018-03-23T09:33:49.876Z,8.30
2018-03-23T09:36:17.449Z,8.50
2018-03-23T09:38:45.174Z,8.50
2018-03-23T09:41:12.824Z,8.60
2018-03-23T09:43:40.376Z,8.70
2018-03-23T09:46:08.656Z,9.00
2018-03-23T09:48:36.175Z,8.90
2018-03-23T09:51:03.645Z,9.00
2018-03-23T09:53:31.286Z,9.00
2018-03-23T09:55:58.824Z,9.00
2018-03-23T09:58:26.335Z,9.10
2018-03-23T10:03:39.857Z,9.20
2018-03-23T10:06:07.476Z,9.30
2018-03-23T10:08:35.022Z,9.40
2018-03-23T10:11:02.640Z,9.50
2018-03-23T10:13:30.290Z,9.40
2018-03-23T10:15:57.806Z,9.50
2018-03-23T10:18:25.325Z,9.50
2018-03-23T10:20:53.259Z,9.50
2018-03-23T10:23:20.767Z,9.60
2018-03-23T10:25:48.304Z,9.50
2018-03-23T10:28:15.932Z,9.40
2018-03-23T10:30:43.449Z,9.30
2018-03-23T10:33:10.931Z,9.40
2018-03-23T10:35:38.579Z,9.30
2018-03-23T10:38:06.094Z,9.30
2018-03-23T10:40:33.603Z,9.20
2018-03-23T10:43:01.154Z,9.30
2018-03-23T10:45:28.706Z,9.30
2018-03-23T10:47:56.182Z,9.30
2018-03-23T10:50:23.702Z,9.30
2018-03-23T10:52:51.225Z,9.30
2018-03-23T10:55:18.842Z,9.30
2018-03-23T10:57:46.320Z,9.40
2018-03-23T11:00:13.775Z,9.50
2018-03-23T11:02:56.366Z,9.50
2018-03-23T11:05:23.885Z,9.50
2018-03-23T11:07:51.422Z,9.60
2018-03-23T11:10:18.942Z,9.70
2018-03-23T11:12:47.219Z,9.60
2018-03-23T11:15:14.745Z,9.60
2018-03-23T11:17:42.212Z,9.60
2018-03-23T11:20:10.498Z,9.60
2018-03-23T11:22:38.068Z,9.60
2018-03-23T11:25:05.565Z,9.70
2018-03-23T11:27:33.065Z,9.70
2018-03-23T11:30:00.583Z,9.70
2018-03-23T11:32:28.117Z,9.80
2018-03-23T11:34:55.663Z,9.90
2018-03-23T11:37:23.168Z,9.90
2018-03-23T11:39:50.676Z,10.10
2018-03-23T11:42:18.203Z,10.20
2018-03-23T11:44:45.820Z,10.30
2018-03-23T11:47:13.327Z,10.50
2018-03-23T11:49:40.827Z,10.50
2018-03-23T11:52:08.330Z,10.60
2018-03-23T11:54:35.852Z,10.50
2018-03-23T11:57:03.304Z,10.70
2018-03-23T11:59:30.857Z,10.90
2018-03-23T12:01:58.357Z,10.90
2018-03-23T12:04:25.826Z,10.90
2018-03-23T12:06:53.368Z,11.00
2018-03-23T12:09:20.884Z,11.00
2018-03-23T12:11:48.402Z,11.00
2018-03-23T12:14:15.909Z,11.10
2018-03-23T12:16:43.419Z,11.10
2018-03-23T12:19:10.967Z,11.10
2018-03-23T12:21:38.490Z,11.10
2018-03-23T12:24:06.039Z,11.10
2018-03-23T12:26:33.525Z,11.20
2018-03-23T12:29:01.043Z,11.20
2018-03-23T12:31:29.304Z,11.10
2018-03-23T12:33:56.779Z,11.00
2018-03-23T12:36:24.249Z,11.10
2018-03-23T12:38:51.764Z,11.20
2018-03-23T12:41:19.366Z,11.30
2018-03-23T12:43:46.862Z,11.40
2018-03-23T12:46:14.361Z,11.40
2018-03-23T12:48:42.615Z,11.30
2018-03-23T12:51:10.102Z,11.30
2018-03-23T12:53:38.337Z,11.20
2018-03-23T12:56:05.834Z,11.10
2018-03-23T12:58:33.315Z,11.10
2018-03-23T13:01:00.841Z,11.00
2018-03-23T13:03:29.117Z,11.00
2018-03-23T13:05:56.645Z,11.00
2018-03-23T13:08:24.087Z,11.00
2018-03-23T13:10:51.563Z,10.90
2018-03-23T13:13:19.042Z,11.00
2018-03-23T13:15:46.571Z,10.90
2018-03-23T13:18:14.073Z,10.90
2018-03-23T13:20:41.567Z,10.90
2018-03-23T13:23:09.109Z,10.90
2018-03-23T13:25:36.653Z,10.90
2018-03-23T13:28:04.200Z,10.90
2018-03-23T13:30:31.762Z,11.00
2018-03-23T13:32:59.315Z,11.00
2018-03-23T13:35:26.819Z,11.00
2018-03-23T13:37:54.342Z,10.90
2018-03-23T13:40:21.858Z,10.80
2018-03-23T13:42:49.456Z,10.80
2018-03-23T13:45:16.968Z,10.80
2018-03-23T13:47:44.448Z,10.70
2018-03-23T13:50:12.054Z,10.80
2018-03-23T13:52:39.486Z,10.70
2018-03-23T13:55:07.742Z,10.70
2018-03-23T13:57:35.199Z,10.70
2018-03-23T14:00:02.729Z,10.70
2018-03-23T14:02:30.239Z,10.70
2018-03-23T14:04:57.702Z,10.70
2018-03-23T14:07:25.195Z,10.70
2018-03-23T14:09:52.671Z,10.70
2018-03-23T14:12:20.264Z,10.70
2018-03-23T14:14:47.766Z,10.60
2018-03-23T14:17:15.351Z,10.50
2018-03-23T14:19:42.861Z,10.50
2018-03-23T14:22:10.309Z,10.50
2018-03-23T14:24:37.901Z,10.60
2018-03-23T14:27:05.420Z,10.50
2018-03-23T14:29:32.875Z,10.50
2018-03-23T14:32:00.394Z,10.60
2018-03-23T14:34:27.959Z,10.50
2018-03-23T14:36:55.435Z,10.50
2018-03-23T14:39:23.677Z,10.50
2018-03-23T14:41:51.187Z,10.40
2018-03-23T14:44:18.651Z,10.40
2018-03-23T14:46:46.114Z,10.30
2018-03-23T14:49:13.612Z,10.30
2018-03-23T14:51:41.086Z,10.40
2018-03-23T14:54:08.592Z,10.30
2018-03-23T14:56:36.074Z,10.30
2018-03-23T14:59:09.178Z,10.30
2018-03-23T15:01:36.602Z,10.30
2018-03-23T15:04:04.045Z,10.40
2018-03-23T15:06:31.648Z,10.30
2018-03-23T15:08:59.131Z,10.30
2018-03-23T15:11:27.407Z,10.30
2018-03-23T15:13:55.654Z,10.30
2018-03-23T15:16:23.138Z,10.30
2018-03-23T15:18:50.600Z,10.20
2018-03-23T15:21:18.120Z,10.20
2018-03-23T15:23:45.602Z,10.30
2018-03-23T15:26:13.095Z,10.40
2018-03-23T15:28:40.577Z,10.40
2018-03-23T15:31:08.054Z,10.40
2018-03-23T15:33:35.538Z,10.40
2018-03-23T15:36:03.065Z,10.30
2018-03-23T15:38:30.562Z,10.30
2018-03-23T15:40:58.043Z,10.40
2018-03-23T15:43:25.508Z,10.40
2018-03-23T15:45:53.022Z,10.40
2018-03-23T15:48:20.518Z,10.30
2018-03-23T15:50:47.966Z,10.20
2018-03-23T15:53:15.413Z,10.30
2018-03-23T15:55:43.726Z,10.20
2018-03-23T15:58:11.231Z,10.20
2018-03-23T16:00:38.701Z,10.20
2018-03-23T16:03:06.196Z,10.20
2018-03-23T16:05:33.662Z,10.20
2018-03-23T16:08:01.115Z,10.20
2018-03-23T16:10:28.602Z,10.10
2018-03-23T16:12:56.080Z,10.00
2018-03-23T16:15:23.528Z,9.90
2018-03-23T16:17:51.019Z,9.90
2018-03-23T16:20:18.715Z,9.90
2018-03-23T16:22:46.187Z,9.90
2018-03-23T16:25:13.645Z,9.90
2018-03-23T16:27:41.111Z,9.80
2018-03-23T16:30:08.590Z,9.70
2018-03-23T16:32:36.817Z,9.60
2018-03-23T16:35:04.267Z,9.60
2018-03-23T16:37:31.821Z,9.70
2018-03-23T16:39:59.303Z,9.70
2018-03-23T16:42:26.773Z,9.60
2018-03-23T16:44:54.255Z,9.50
2018-03-23T16:47:23.969Z,9.50
2018-03-23T16:49:51.449Z,9.40
2018-03-23T16:52:18.921Z,9.40
2018-03-23T16:54:46.388Z,9.40
2018-03-23T16:57:13.887Z,9.40
2018-03-23T16:59:42.111Z,9.40
2018-03-23T17:02:09.599Z,9.40
2018-03-23T17:04:37.066Z,9.30
2018-03-23T17:07:04.591Z,9.40
2018-03-23T17:09:32.109Z,9.40
2018-03-23T17:11:59.605Z,9.30
2018-03-23T17:14:27.886Z,9.30
2018-03-23T17:16:55.385Z,9.30
2018-03-23T17:19:23.660Z,9.40
2018-03-23T17:21:51.164Z,9.30
2018-03-23T17:24:18.671Z,9.40
2018-03-23T17:26:46.147Z,9.40
2018-03-23T17:29:13.640Z,9.40
2018-03-23T17:31:41.143Z,9.40
2018-03-23T17:34:08.715Z,9.40
2018-03-23T17:36:36.175Z,9.40
2018-03-23T17:39:03.672Z,9.40
2018-03-23T17:41:31.199Z,9.40
2018-03-23T17:43:59.465Z,9.40
2018-03-23T17:46:27.348Z,9.40
2018-03-23T17:52:09.597Z,9.40
2018-03-23T17:54:38.168Z,9.30
2018-03-23T17:57:10.551Z,9.30
2018-03-23T17:59:38.056Z,9.20
2018-03-23T18:02:05.551Z,9.20
2018-03-23T18:04:33.028Z,9.20
2018-03-23T18:07:00.498Z,9.20
2018-03-23T18:09:27.991Z,9.20
2018-03-23T18:11:58.634Z,9.20
2018-03-23T18:14:26.195Z,9.20
2018-03-23T18:16:53.690Z,9.10
2018-03-23T18:19:21.234Z,9.20
2018-03-23T18:21:48.758Z,9.10
2018-03-23T18:24:16.258Z,9.10
2018-03-23T18:26:43.736Z,9.10
2018-03-23T18:29:11.207Z,9.10
2018-03-23T18:31:38.708Z,9.10
2018-03-23T18:34:06.169Z,9.10
2018-03-23T18:36:34.011Z,9.10
2018-03-23T18:39:02.287Z,9.10
2018-03-23T18:41:31.227Z,9.00
2018-03-23T18:43:58.689Z,9.00
2018-03-23T18:46:26.146Z,9.10
2018-03-23T18:48:53.586Z,9.10
2018-03-23T18:51:21.058Z,9.10
2018-03-23T18:53:48.518Z,9.10
2018-03-23T18:56:16.002Z,9.10
2018-03-23T18:58:44.456Z,9.10
2018-03-23T19:01:12.096Z,9.00
2018-03-23T19:03:39.582Z,9.00
2018-03-23T19:06:07.115Z,9.00
2018-03-23T19:08:34.602Z,9.00
2018-03-23T19:11:02.157Z,9.00
2018-03-23T19:13:29.661Z,9.00
2018-03-23T19:15:57.878Z,9.00
2018-03-23T19:18:25.379Z,9.00
2018-03-23T19:20:53.669Z,9.00
2018-03-23T19:23:21.151Z,8.90
2018-03-23T19:25:48.639Z,8.90
2018-03-23T19:28:16.167Z,8.90
2018-03-23T19:30:43.700Z,8.90
2018-03-23T19:33:11.296Z,8.80
2018-03-23T19:35:38.795Z,8.80
2018-03-23T19:38:06.275Z,8.70
2018-03-23T19:40:33.767Z,8.70
2018-03-23T19:43:01.397Z,8.70
2018-03-23T19:45:28.886Z,8.70
2018-03-23T19:47:56.367Z,8.60
2018-03-23T19:50:23.850Z,8.60
2018-03-23T19:52:51.468Z,8.60
2018-03-23T19:55:18.946Z,8.60
2018-03-23T19:57:46.502Z,8.60
2018-03-23T20:00:14.051Z,8.60
2018-03-23T20:02:41.603Z,8.60
2018-03-23T20:05:09.214Z,8.60
2018-03-23T20:07:36.734Z,8.70
2018-03-23T20:10:04.227Z,8.70
2018-03-23T20:12:31.732Z,8.70
2018-03-23T20:14:59.243Z,8.70
2018-03-23T20:17:33.778Z,8.60
2018-03-23T20:20:02.058Z,8.60
2018-03-23T20:22:29.571Z,8.60
2018-03-23T20:24:57.168Z,8.60
2018-03-23T20:27:30.934Z,8.60
2018-03-23T20:29:58.459Z,8.50
2018-03-23T20:32:31.726Z,8.50
2018-03-23T20:35:00.112Z,8.60
2018-03-23T20:37:27.621Z,8.50
2018-03-23T20:39:55.096Z,8.60
2018-03-23T20:42:22.575Z,8.60
2018-03-23T20:44:50.991Z,8.40
2018-03-23T20:47:18.484Z,8.40
2018-03-23T20:49:46.001Z,8.50
2018-03-23T20:52:14.820Z,8.40
2018-03-23T20:54:44.741Z,8.40
2018-03-23T20:57:12.271Z,8.40
2018-03-23T20:59:39.825Z,8.40
2018-03-23T21:02:07.320Z,8.30
2018-03-23T21:04:34.794Z,8.20
2018-03-23T21:07:02.362Z,8.20
2018-03-23T21:09:30.842Z,8.20
2018-03-23T21:11:58.910Z,8.20
2018-03-23T21:14:26.459Z,8.20
2018-03-23T21:16:54.713Z,8.20
2018-03-23T21:19:22.485Z,8.20
2018-03-23T21:21:50.004Z,8.20
2018-03-23T21:24:17.487Z,8.10
2018-03-23T21:26:45.008Z,8.00
2018-03-23T21:29:12.576Z,8.00
2018-03-23T21:31:40.120Z,7.90
2018-03-23T21:34:07.582Z,7.90
2018-03-23T21:36:35.119Z,7.90
2018-03-23T21:39:02.623Z,7.90
2018-03-23T21:41:30.189Z,7.90
2018-03-23T21:43:58.542Z,7.90
2018-03-23T21:46:26.075Z,7.90
2018-03-23T21:48:53.579Z,7.90
2018-03-23T21:51:21.067Z,7.90
2018-03-23T21:53:48.530Z,7.90
2018-03-23T21:56:16.014Z,7.90
2018-03-23T21:58:43.480Z,7.90
2018-03-23T22:01:11.181Z,7.90
2018-03-23T22:03:38.753Z,7.90
2018-03-23T22:06:06.599Z,7.90
2018-03-23T22:08:34.091Z,8.00
2018-03-23T22:11:01.551Z,8.00
2018-03-23T22:13:30.003Z,7.80
2018-03-23T22:15:57.447Z,7.90
2018-03-23T22:18:24.927Z,7.90
2018-03-23T22:20:52.570Z,7.90
2018-03-23T22:23:20.039Z,8.00
2018-03-23T22:25:47.546Z,8.00
2018-03-23T22:28:15.002Z,8.00
2018-03-23T22:30:42.482Z,8.00
2018-03-23T22:33:10.009Z,8.00
2018-03-23T22:35:37.493Z,8.00
2018-03-23T22:38:04.982Z,8.00
2018-03-23T22:40:32.465Z,8.00
2018-03-23T22:43:00.759Z,8.10
2018-03-23T22:45:28.262Z,8.00
2018-03-23T22:47:55.754Z,8.00
2018-03-23T22:50:23.228Z,8.00
2018-03-23T22:52:50.711Z,8.00
2018-03-23T22:55:18.201Z,7.90
2018-03-23T22:57:45.682Z,7.90
2018-03-23T23:00:13.142Z,7.90
2018-03-23T23:02:41.383Z,7.80
2018-03-23T23:05:08.891Z,7.70
2018-03-23T23:07:36.392Z,7.70
2018-03-23T23:10:03.863Z,7.70
2018-03-23T23:12:31.373Z,7.70
2018-03-23T23:14:58.858Z,7.70
2018-03-23T23:17:26.364Z,7.70
2018-03-23T23:19:54.614Z,7.80
2018-03-23T23:22:22.097Z,7.80
2018-03-23T23:24:50.343Z,7.90
2018-03-23T23:27:17.826Z,7.80
2018-03-23T23:29:45.323Z,7.80
2018-03-23T23:32:12.810Z,7.80
2018-03-23T23:34:40.290Z,7.80
2018-03-23T23:37:07.909Z,7.80
2018-03-23T23:39:35.366Z,7.80
2018-03-23T23:42:02.877Z,7.70
2018-03-23T23:44:30.354Z,7.60
2018-03-23T23:46:57.834Z,7.60
2018-03-23T23:49:25.353Z,7.60
2018-03-23T23:51:53.612Z,7.40
2018-03-23T23:54:21.082Z,7.40
2018-03-23T23:56:49.383Z,7.40
2018-03-23T23:59:16.882Z,7.40
